sensor_id;sensor_type;location;lat;lon;timestamp;pressure;altitude;pressure_sealevel;temperature;humidity
55576;BME280;41437;45.478;9.116;2022-12-18T00:02:24;100878.91;;;5.91;100.00
55576;BME280;41437;45.478;9.116;2022-12-18T00:05:26;100886.50;;;5.89;100.00
55576;BME280;41437;45.478;9.116;2022-12-18T00:08:29;100879.97;;;5.84;100.00
55576;BME280;41437;45.478;9.116;2022-12-18T00:11:31;100897.16;;;5.77;100.00
55576;BME280;41437;45.478;9.116;2022-12-18T00:14:33;100895.88;;;5.73;100.00
55576;BME280;41437;45.478;9.116;2022-12-18T00:17:34;100886.84;;;5.73;100.00
55576;BME280;41437;45.478;9.116;2022-12-18T00:20:36;100890.63;;;5.72;100.00
55576;BME280;41437;45.478;9.116;2022-12-18T00:23:42;100889.34;;;5.68;100.00
55576;BME280;41437;45.478;9.116;2022-12-18T00:26:43;100893.91;;;5.54;100.00
55576;BME280;41437;45.478;9.116;2022-12-18T00:29:45;100892.63;;;5.57;100.00
55576;BME280;41437;45.478;9.116;2022-12-18T00:32:47;100897.59;;;5.40;100.00
55576;BME280;41437;45.478;9.116;2022-12-18T00:35:49;100888.53;;;5.33;100.00
55576;BME280;41437;45.478;9.116;2022-12-18T00:38:53;100905.59;;;5.41;100.00
55576;BME280;41437;45.478;9.116;2022-12-18T00:41:55;100904.56;;;5.42;100.00
55576;BME280;41437;45.478;9.116;2022-12-18T00:45:14;100916.53;;;5.41;100.00
55576;BME280;41437;45.478;9.116;2022-12-18T00:48:16;100921.56;;;5.38;100.00
55576;BME280;41437;45.478;9.116;2022-12-18T00:51:17;100927.22;;;5.36;100.00
55576;BME280;41437;45.478;9.116;2022-12-18T00:54:20;100927.78;;;5.25;100.00
55576;BME280;41437;45.478;9.116;2022-12-18T00:57:24;100933.94;;;5.06;100.00
55576;BME280;41437;45.478;9.116;2022-12-18T01:00:26;100949.44;;;4.98;100.00
55576;BME280;41437;45.478;9.116;2022-12-18T01:03:27;100959.00;;;4.88;100.00
55576;BME280;41437;45.478;9.116;2022-12-18T01:06:29;100955.16;;;4.82;100.00
55576;BME280;41437;45.478;9.116;2022-12-18T01:09:32;100958.84;;;4.74;100.00
55576;BME280;41437;45.478;9.116;2022-12-18T01:12:34;100956.59;;;4.78;100.00
55576;BME280;41437;45.478;9.116;2022-12-18T01:15:36;100959.84;;;4.88;100.00
55576;BME280;41437;45.478;9.116;2022-12-18T01:18:38;100975.44;;;4.94;100.00
55576;BME280;41437;45.478;9.116;2022-12-18T01:21:39;100978.97;;;4.88;100.00
55576;BME280;41437;45.478;9.116;2022-12-18T01:24:42;100970.44;;;4.76;100.00
55576;BME280;41437;45.478;9.116;2022-12-18T01:27:44;100986.63;;;4.78;100.00
55576;BME280;41437;45.478;9.116;2022-12-18T01:30:45;100997.53;;;4.78;100.00
55576;BME280;41437;45.478;9.116;2022-12-18T01:33:47;101009.50;;;4.77;100.00
55576;BME280;41437;45.478;9.116;2022-12-18T01:36:49;101008.31;;;4.65;100.00
55576;BME280;41437;45.478;9.116;2022-12-18T01:39:53;101024.66;;;4.58;100.00
55576;BME280;41437;45.478;9.116;2022-12-18T01:42:55;101015.31;;;4.52;100.00
55576;BME280;41437;45.478;9.116;2022-12-18T01:45:59;101024.25;;;4.61;100.00
55576;BME280;41437;45.478;9.116;2022-12-18T01:49:01;101029.91;;;4.60;100.00
55576;BME280;41437;45.478;9.116;2022-12-18T01:52:03;101019.09;;;4.51;100.00
55576;BME280;41437;45.478;9.116;2022-12-18T01:55:07;101025.41;;;4.52;100.00
55576;BME280;41437;45.478;9.116;2022-12-18T01:58:09;101025.34;;;4.45;100.00
55576;BME280;41437;45.478;9.116;2022-12-18T02:01:11;101027.13;;;4.38;100.00
55576;BME280;41437;45.478;9.116;2022-12-18T02:04:20;101030.78;;;4.45;100.00
55576;BME280;41437;45.478;9.116;2022-12-18T02:07:29;101036.38;;;4.37;100.00
55576;BME280;41437;45.478;9.116;2022-12-18T02:10:40;101043.88;;;4.35;100.00
55576;BME280;41437;45.478;9.116;2022-12-18T02:13:49;101039.28;;;4.21;100.00
55576;BME280;41437;45.478;9.116;2022-12-18T02:16:59;101047.84;;;4.18;100.00
55576;BME280;41437;45.478;9.116;2022-12-18T02:20:10;101050.97;;;4.15;100.00
55576;BME280;41437;45.478;9.116;2022-12-18T02:23:27;101060.56;;;4.11;100.00
55576;BME280;41437;45.478;9.116;2022-12-18T02:26:36;101052.22;;;3.97;100.00
55576;BME280;41437;45.478;9.116;2022-12-18T02:29:43;101037.72;;;3.82;100.00
55576;BME280;41437;45.478;9.116;2022-12-18T02:32:50;101038.09;;;3.79;100.00
55576;BME280;41437;45.478;9.116;2022-12-18T02:35:54;101013.75;;;3.63;100.00
55576;BME280;41437;45.478;9.116;2022-12-18T02:38:58;101027.19;;;3.79;100.00
55576;BME280;41437;45.478;9.116;2022-12-18T02:42:02;101034.06;;;3.90;100.00
55576;BME280;41437;45.478;9.116;2022-12-18T02:45:08;101034.22;;;4.03;100.00
55576;BME280;41437;45.478;9.116;2022-12-18T02:48:10;101042.13;;;4.13;100.00
55576;BME280;41437;45.478;9.116;2022-12-18T02:51:18;101049.28;;;4.14;100.00
55576;BME280;41437;45.478;9.116;2022-12-18T02:54:38;101046.72;;;4.12;100.00
55576;BME280;41437;45.478;9.116;2022-12-18T02:57:48;101058.00;;;4.09;100.00
55576;BME280;41437;45.478;9.116;2022-12-18T03:00:55;101062.53;;;4.02;100.00
55576;BME280;41437;45.478;9.116;2022-12-18T03:04:03;101056.97;;;3.95;100.00
55576;BME280;41437;45.478;9.116;2022-12-18T03:07:10;101070.44;;;3.97;100.00
55576;BME280;41437;45.478;9.116;2022-12-18T03:10:16;101075.22;;;3.95;100.00
55576;BME280;41437;45.478;9.116;2022-12-18T03:13:26;101081.72;;;3.94;100.00
55576;BME280;41437;45.478;9.116;2022-12-18T03:16:30;101077.69;;;3.90;100.00
55576;BME280;41437;45.478;9.116;2022-12-18T03:19:33;101077.13;;;3.94;100.00
55576;BME280;41437;45.478;9.116;2022-12-18T03:22:36;101066.47;;;3.99;100.00
55576;BME280;41437;45.478;9.116;2022-12-18T03:25:41;101081.44;;;4.03;100.00
55576;BME280;41437;45.478;9.116;2022-12-18T03:28:48;101084.53;;;4.00;100.00
55576;BME280;41437;45.478;9.116;2022-12-18T03:32:02;101079.75;;;4.02;100.00
55576;BME280;41437;45.478;9.116;2022-12-18T03:35:08;101082.69;;;4.01;100.00
55576;BME280;41437;45.478;9.116;2022-12-18T03:38:12;101088.22;;;4.08;100.00
55576;BME280;41437;45.478;9.116;2022-12-18T03:41:18;101087.72;;;4.04;100.00
55576;BME280;41437;45.478;9.116;2022-12-18T03:44:28;101089.81;;;4.02;100.00
55576;BME280;41437;45.478;9.116;2022-12-18T03:47:35;101088.97;;;4.01;100.00
55576;BME280;41437;45.478;9.116;2022-12-18T03:50:45;101086.34;;;3.93;100.00
55576;BME280;41437;45.478;9.116;2022-12-18T03:53:53;101087.19;;;3.94;100.00
55576;BME280;41437;45.478;9.116;2022-12-18T03:57:00;101096.13;;;4.02;100.00
55576;BME280;41437;45.478;9.116;2022-12-18T04:00:06;101108.88;;;3.87;100.00
55576;BME280;41437;45.478;9.116;2022-12-18T04:03:10;101110.00;;;3.78;100.00
55576;BME280;41437;45.478;9.116;2022-12-18T04:06:13;101104.53;;;3.78;100.00
55576;BME280;41437;45.478;9.116;2022-12-18T04:09:16;101112.66;;;3.86;100.00
55576;BME280;41437;45.478;9.116;2022-12-18T04:12:17;101118.22;;;3.93;100.00
55576;BME280;41437;45.478;9.116;2022-12-18T04:15:20;101127.88;;;3.95;100.00
55576;BME280;41437;45.478;9.116;2022-12-18T04:18:22;101130.31;;;3.90;100.00
55576;BME280;41437;45.478;9.116;2022-12-18T04:21:24;101130.53;;;3.89;100.00
55576;BME280;41437;45.478;9.116;2022-12-18T04:24:25;101124.88;;;3.90;100.00
55576;BME280;41437;45.478;9.116;2022-12-18T04:27:27;101133.25;;;3.89;100.00
55576;BME280;41437;45.478;9.116;2022-12-18T04:30:30;101129.41;;;3.83;100.00
55576;BME280;41437;45.478;9.116;2022-12-18T04:33:31;101137.75;;;3.82;100.00
55576;BME280;41437;45.478;9.116;2022-12-18T04:36:33;101141.78;;;3.86;100.00
55576;BME280;41437;45.478;9.116;2022-12-18T04:39:34;101140.75;;;3.87;100.00
55576;BME280;41437;45.478;9.116;2022-12-18T04:42:37;101152.97;;;3.91;100.00
55576;BME280;41437;45.478;9.116;2022-12-18T04:45:39;101148.28;;;3.85;100.00
55576;BME280;41437;45.478;9.116;2022-12-18T04:48:41;101165.28;;;3.87;100.00
55576;BME280;41437;45.478;9.116;2022-12-18T04:51:43;101168.41;;;3.84;100.00
55576;BME280;41437;45.478;9.116;2022-12-18T04:54:44;101179.75;;;3.87;100.00
55576;BME280;41437;45.478;9.116;2022-12-18T04:57:46;101180.88;;;3.78;100.00
55576;BME280;41437;45.478;9.116;2022-12-18T05:00:48;101178.47;;;3.83;100.00
55576;BME280;41437;45.478;9.116;2022-12-18T05:03:51;101175.28;;;3.94;100.00
55576;BME280;41437;45.478;9.116;2022-12-18T05:06:53;101184.97;;;3.97;100.00
55576;BME280;41437;45.478;9.116;2022-12-18T05:09:54;101186.94;;;3.88;100.00
55576;BME280;41437;45.478;9.116;2022-12-18T05:12:56;101195.66;;;3.84;100.00
55576;BME280;41437;45.478;9.116;2022-12-18T05:16:02;101196.59;;;3.91;100.00
55576;BME280;41437;45.478;9.116;2022-12-18T05:19:04;101200.50;;;3.96;100.00
55576;BME280;41437;45.478;9.116;2022-12-18T05:22:05;101202.91;;;3.91;100.00
55576;BME280;41437;45.478;9.116;2022-12-18T05:25:08;101214.31;;;3.95;100.00
55576;BME280;41437;45.478;9.116;2022-12-18T05:28:09;101225.41;;;3.93;100.00
55576;BME280;41437;45.478;9.116;2022-12-18T05:31:13;101216.75;;;3.90;100.00
55576;BME280;41437;45.478;9.116;2022-12-18T05:34:14;101225.19;;;3.80;100.00
55576;BME280;41437;45.478;9.116;2022-12-18T05:37:16;101223.34;;;3.72;100.00
55576;BME280;41437;45.478;9.116;2022-12-18T05:40:18;101228.50;;;3.67;100.00
55576;BME280;41437;45.478;9.116;2022-12-18T05:43:20;101233.59;;;3.70;100.00
55576;BME280;41437;45.478;9.116;2022-12-18T05:46:23;101216.03;;;3.73;100.00
55576;BME280;41437;45.478;9.116;2022-12-18T05:49:26;101223.16;;;3.74;100.00
55576;BME280;41437;45.478;9.116;2022-12-18T05:52:27;101238.50;;;3.75;100.00
55576;BME280;41437;45.478;9.116;2022-12-18T05:55:29;101229.66;;;3.73;100.00
55576;BME280;41437;45.478;9.116;2022-12-18T05:58:34;101235.16;;;3.88;100.00
55576;BME280;41437;45.478;9.116;2022-12-18T06:01:37;101242.72;;;4.00;100.00
55576;BME280;41437;45.478;9.116;2022-12-18T06:04:38;101240.94;;;4.08;100.00
55576;BME280;41437;45.478;9.116;2022-12-18T06:07:40;101239.13;;;4.00;100.00
55576;BME280;41437;45.478;9.116;2022-12-18T06:10:41;101257.31;;;4.08;100.00
55576;BME280;41437;45.478;9.116;2022-12-18T06:13:43;101252.84;;;4.15;100.00
55576;BME280;41437;45.478;9.116;2022-12-18T06:16:46;101252.00;;;4.14;100.00
55576;BME280;41437;45.478;9.116;2022-12-18T06:19:48;101256.59;;;4.14;100.00
55576;BME280;41437;45.478;9.116;2022-12-18T06:22:49;101255.00;;;4.19;100.00
55576;BME280;41437;45.478;9.116;2022-12-18T06:25:51;101253.69;;;4.15;100.00
55576;BME280;41437;45.478;9.116;2022-12-18T06:28:53;101261.59;;;4.25;100.00
55576;BME280;41437;45.478;9.116;2022-12-18T06:31:56;101270.06;;;4.30;100.00
55576;BME280;41437;45.478;9.116;2022-12-18T06:34:57;101276.22;;;4.32;100.00
55576;BME280;41437;45.478;9.116;2022-12-18T06:38:01;101280.81;;;4.32;100.00
55576;BME280;41437;45.478;9.116;2022-12-18T06:41:06;101285.88;;;4.35;100.00
55576;BME280;41437;45.478;9.116;2022-12-18T06:44:07;101295.47;;;4.31;100.00
55576;BME280;41437;45.478;9.116;2022-12-18T06:47:11;101295.00;;;4.27;100.00
55576;BME280;41437;45.478;9.116;2022-12-18T06:50:12;101286.22;;;4.17;100.00
55576;BME280;41437;45.478;9.116;2022-12-18T06:53:14;101296.09;;;4.18;100.00
55576;BME280;41437;45.478;9.116;2022-12-18T06:56:15;101300.25;;;4.14;100.00
55576;BME280;41437;45.478;9.116;2022-12-18T06:59:17;101303.13;;;4.12;100.00
55576;BME280;41437;45.478;9.116;2022-12-18T07:02:20;101308.16;;;4.00;100.00
55576;BME280;41437;45.478;9.116;2022-12-18T07:05:22;101314.84;;;3.98;100.00
55576;BME280;41437;45.478;9.116;2022-12-18T07:08:24;101311.06;;;3.99;100.00
55576;BME280;41437;45.478;9.116;2022-12-18T07:11:26;101318.16;;;4.08;100.00
55576;BME280;41437;45.478;9.116;2022-12-18T07:14:27;101320.78;;;4.01;100.00
55576;BME280;41437;45.478;9.116;2022-12-18T07:17:31;101331.50;;;4.03;100.00
55576;BME280;41437;45.478;9.116;2022-12-18T07:20:32;101338.09;;;4.09;100.00
55576;BME280;41437;45.478;9.116;2022-12-18T07:23:34;101330.97;;;4.08;100.00
55576;BME280;41437;45.478;9.116;2022-12-18T07:26:36;101348.38;;;4.07;100.00
55576;BME280;41437;45.478;9.116;2022-12-18T07:29:38;101350.09;;;3.99;100.00
55576;BME280;41437;45.478;9.116;2022-12-18T07:32:41;101357.78;;;3.96;100.00
55576;BME280;41437;45.478;9.116;2022-12-18T07:35:43;101369.19;;;3.99;100.00
55576;BME280;41437;45.478;9.116;2022-12-18T07:38:46;101366.41;;;4.08;100.00
55576;BME280;41437;45.478;9.116;2022-12-18T07:41:48;101376.97;;;4.11;100.00
55576;BME280;41437;45.478;9.116;2022-12-18T07:45:10;101382.47;;;4.25;100.00
55576;BME280;41437;45.478;9.116;2022-12-18T07:48:13;101396.63;;;4.29;100.00
55576;BME280;41437;45.478;9.116;2022-12-18T07:51:14;101403.75;;;4.30;100.00
55576;BME280;41437;45.478;9.116;2022-12-18T07:54:16;101409.91;;;4.32;100.00
55576;BME280;41437;45.478;9.116;2022-12-18T07:57:17;101418.44;;;4.29;100.00
55576;BME280;41437;45.478;9.116;2022-12-18T08:00:19;101420.97;;;4.31;100.00
55576;BME280;41437;45.478;9.116;2022-12-18T08:03:22;101430.69;;;4.33;100.00
55576;BME280;41437;45.478;9.116;2022-12-18T08:06:23;101426.44;;;4.31;100.00
55576;BME280;41437;45.478;9.116;2022-12-18T08:09:25;101423.66;;;4.16;100.00
55576;BME280;41437;45.478;9.116;2022-12-18T08:12:26;101437.94;;;4.18;100.00
55576;BME280;41437;45.478;9.116;2022-12-18T08:15:28;101438.75;;;4.26;100.00
55576;BME280;41437;45.478;9.116;2022-12-18T08:18:31;101440.88;;;4.39;100.00
55576;BME280;41437;45.478;9.116;2022-12-18T08:21:33;101444.25;;;4.49;100.00
55576;BME280;41437;45.478;9.116;2022-12-18T08:24:35;101455.44;;;4.54;100.00
55576;BME280;41437;45.478;9.116;2022-12-18T08:27:36;101447.91;;;4.57;100.00
55576;BME280;41437;45.478;9.116;2022-12-18T08:30:38;101448.59;;;4.59;100.00
55576;BME280;41437;45.478;9.116;2022-12-18T08:33:41;101447.50;;;4.68;100.00
55576;BME280;41437;45.478;9.116;2022-12-18T08:36:43;101444.09;;;4.66;100.00
55576;BME280;41437;45.478;9.116;2022-12-18T08:39:45;101447.31;;;4.69;100.00
55576;BME280;41437;45.478;9.116;2022-12-18T08:42:46;101451.22;;;4.75;100.00
55576;BME280;41437;45.478;9.116;2022-12-18T08:46:11;101451.59;;;4.87;100.00
55576;BME280;41437;45.478;9.116;2022-12-18T08:49:14;101457.69;;;4.97;100.00
55576;BME280;41437;45.478;9.116;2022-12-18T08:52:15;101459.66;;;5.03;100.00
55576;BME280;41437;45.478;9.116;2022-12-18T08:55:17;101447.97;;;5.09;100.00
55576;BME280;41437;45.478;9.116;2022-12-18T08:58:19;101453.63;;;5.08;100.00
55576;BME280;41437;45.478;9.116;2022-12-18T09:01:21;101463.16;;;5.12;100.00
55576;BME280;41437;45.478;9.116;2022-12-18T09:04:24;101476.16;;;5.10;100.00
55576;BME280;41437;45.478;9.116;2022-12-18T09:07:26;101483.19;;;5.04;100.00
55576;BME280;41437;45.478;9.116;2022-12-18T09:10:28;101477.19;;;5.09;100.00
55576;BME280;41437;45.478;9.116;2022-12-18T09:13:29;101482.22;;;5.20;100.00
55576;BME280;41437;45.478;9.116;2022-12-18T09:16:31;101481.09;;;5.29;100.00
55576;BME280;41437;45.478;9.116;2022-12-18T09:19:36;101479.88;;;5.32;100.00
55576;BME280;41437;45.478;9.116;2022-12-18T09:22:38;101500.50;;;5.34;100.00
55576;BME280;41437;45.478;9.116;2022-12-18T09:25:41;101500.63;;;5.41;100.00
55576;BME280;41437;45.478;9.116;2022-12-18T09:28:43;101504.72;;;5.22;100.00
55576;BME280;41437;45.478;9.116;2022-12-18T09:31:45;101507.56;;;5.28;100.00
55576;BME280;41437;45.478;9.116;2022-12-18T09:34:48;101506.88;;;5.12;100.00
55576;BME280;41437;45.478;9.116;2022-12-18T09:37:49;101494.06;;;5.12;100.00
55576;BME280;41437;45.478;9.116;2022-12-18T09:40:53;101497.94;;;5.18;100.00
55576;BME280;41437;45.478;9.116;2022-12-18T09:43:59;101496.16;;;5.25;100.00
55576;BME280;41437;45.478;9.116;2022-12-18T09:47:09;101494.97;;;5.42;100.00
55576;BME280;41437;45.478;9.116;2022-12-18T09:50:23;101497.63;;;5.50;100.00
55576;BME280;41437;45.478;9.116;2022-12-18T09:53:29;101499.59;;;5.57;100.00
55576;BME280;41437;45.478;9.116;2022-12-18T09:56:38;101496.84;;;5.57;100.00
55576;BME280;41437;45.478;9.116;2022-12-18T09:59:42;101492.91;;;5.74;100.00
55576;BME280;41437;45.478;9.116;2022-12-18T10:02:45;101496.03;;;5.71;100.00
55576;BME280;41437;45.478;9.116;2022-12-18T10:05:56;101490.84;;;5.76;100.00
55576;BME280;41437;45.478;9.116;2022-12-18T10:09:01;101488.84;;;5.70;100.00
55576;BME280;41437;45.478;9.116;2022-12-18T10:12:09;101488.38;;;5.81;100.00
55576;BME280;41437;45.478;9.116;2022-12-18T10:15:18;101493.09;;;5.72;100.00
55576;BME280;41437;45.478;9.116;2022-12-18T10:18:33;101493.66;;;5.83;100.00
55576;BME280;41437;45.478;9.116;2022-12-18T10:21:44;101490.81;;;5.91;100.00
55576;BME280;41437;45.478;9.116;2022-12-18T10:24:54;101489.06;;;5.98;100.00
55576;BME280;41437;45.478;9.116;2022-12-18T10:28:07;101493.28;;;6.00;100.00
55576;BME280;41437;45.478;9.116;2022-12-18T10:31:15;101487.34;;;6.12;100.00
55576;BME280;41437;45.478;9.116;2022-12-18T10:34:19;101487.44;;;6.18;100.00
55576;BME280;41437;45.478;9.116;2022-12-18T10:37:25;101480.94;;;6.04;100.00
55576;BME280;41437;45.478;9.116;2022-12-18T10:40:27;101498.88;;;6.07;100.00
55576;BME280;41437;45.478;9.116;2022-12-18T10:43:30;101499.72;;;6.08;100.00
55576;BME280;41437;45.478;9.116;2022-12-18T10:46:32;101497.59;;;6.24;100.00
55576;BME280;41437;45.478;9.116;2022-12-18T10:49:35;101494.66;;;6.26;100.00
55576;BME280;41437;45.478;9.116;2022-12-18T10:52:38;101498.56;;;6.17;100.00
55576;BME280;41437;45.478;9.116;2022-12-18T10:55:44;101498.59;;;6.02;100.00
55576;BME280;41437;45.478;9.116;2022-12-18T10:58:56;101498.56;;;5.87;100.00
55576;BME280;41437;45.478;9.116;2022-12-18T11:01:58;101500.09;;;6.04;100.00
55576;BME280;41437;45.478;9.116;2022-12-18T11:05:00;101502.06;;;6.11;100.00
55576;BME280;41437;45.478;9.116;2022-12-18T11:08:03;101508.47;;;6.18;100.00
55576;BME280;41437;45.478;9.116;2022-12-18T11:11:15;101504.91;;;6.02;100.00
55576;BME280;41437;45.478;9.116;2022-12-18T11:14:22;101494.44;;;6.06;100.00
55576;BME280;41437;45.478;9.116;2022-12-18T11:17:29;101497.72;;;6.16;100.00
55576;BME280;41437;45.478;9.116;2022-12-18T11:20:32;101507.81;;;6.16;100.00
55576;BME280;41437;45.478;9.116;2022-12-18T11:23:49;101502.13;;;6.17;100.00
55576;BME280;41437;45.478;9.116;2022-12-18T11:26:51;101500.63;;;6.29;100.00
55576;BME280;41437;45.478;9.116;2022-12-18T11:52:16;101473.31;;;6.36;100.00
55576;BME280;41437;45.478;9.116;2022-12-18T12:02:33;101473.31;;;6.36;100.00
55576;BME280;41437;45.478;9.116;2022-12-18T12:05:54;101481.06;;;6.33;100.00
55576;BME280;41437;45.478;9.116;2022-12-18T12:09:06;101473.03;;;6.31;100.00
55576;BME280;41437;45.478;9.116;2022-12-18T12:12:27;101471.22;;;6.38;100.00
55576;BME280;41437;45.478;9.116;2022-12-18T12:15:52;101456.97;;;6.43;100.00
55576;BME280;41437;45.478;9.116;2022-12-18T12:19:06;101463.41;;;6.57;100.00
55576;BME280;41437;45.478;9.116;2022-12-18T12:22:18;101455.19;;;6.35;100.00
55576;BME280;41437;45.478;9.116;2022-12-18T12:25:33;101455.63;;;6.53;100.00
55576;BME280;41437;45.478;9.116;2022-12-18T12:28:53;101456.25;;;6.55;100.00
55576;BME280;41437;45.478;9.116;2022-12-18T12:32:11;101450.59;;;6.36;100.00
55576;BME280;41437;45.478;9.116;2022-12-18T12:35:27;101461.06;;;6.32;100.00
55576;BME280;41437;45.478;9.116;2022-12-18T12:38:35;101456.34;;;6.26;100.00
55576;BME280;41437;45.478;9.116;2022-12-18T12:41:45;101458.50;;;5.94;100.00
55576;BME280;41437;45.478;9.116;2022-12-18T12:45:06;101455.66;;;6.02;100.00
55576;BME280;41437;45.478;9.116;2022-12-18T12:48:20;101447.50;;;6.09;100.00
55576;BME280;41437;45.478;9.116;2022-12-18T12:51:29;101453.28;;;6.14;100.00
55576;BME280;41437;45.478;9.116;2022-12-18T12:54:32;101448.19;;;5.96;100.00
55576;BME280;41437;45.478;9.116;2022-12-18T12:57:38;101458.13;;;5.97;100.00
55576;BME280;41437;45.478;9.116;2022-12-18T13:00:44;101453.19;;;6.08;100.00
55576;BME280;41437;45.478;9.116;2022-12-18T13:03:56;101442.13;;;6.16;100.00
55576;BME280;41437;45.478;9.116;2022-12-18T13:07:06;101439.53;;;6.29;100.00
55576;BME280;41437;45.478;9.116;2022-12-18T13:10:22;101434.84;;;6.23;100.00
55576;BME280;41437;45.478;9.116;2022-12-18T13:13:49;101435.00;;;6.36;100.00
55576;BME280;41437;45.478;9.116;2022-12-18T13:16:51;101438.03;;;6.26;100.00
55576;BME280;41437;45.478;9.116;2022-12-18T13:20:04;101433.72;;;6.17;100.00
55576;BME280;41437;45.478;9.116;2022-12-18T13:23:33;101429.44;;;6.29;100.00
55576;BME280;41437;45.478;9.116;2022-12-18T13:26:36;101434.63;;;6.03;100.00
55576;BME280;41437;45.478;9.116;2022-12-18T13:29:44;101416.97;;;5.91;100.00
55576;BME280;41437;45.478;9.116;2022-12-18T13:32:46;101434.72;;;6.10;100.00
55576;BME280;41437;45.478;9.116;2022-12-18T13:35:52;101422.56;;;5.97;100.00
55576;BME280;41437;45.478;9.116;2022-12-18T13:39:23;101431.22;;;5.86;100.00
55576;BME280;41437;45.478;9.116;2022-12-18T13:42:37;101408.59;;;5.77;100.00
55576;BME280;41437;45.478;9.116;2022-12-18T13:46:20;101421.97;;;5.87;100.00
55576;BME280;41437;45.478;9.116;2022-12-18T13:49:24;101408.88;;;5.97;100.00
55576;BME280;41437;45.478;9.116;2022-12-18T13:52:35;101416.56;;;6.09;100.00
55576;BME280;41437;45.478;9.116;2022-12-18T13:55:38;101407.13;;;6.11;100.00
55576;BME280;41437;45.478;9.116;2022-12-18T13:58:39;101407.25;;;6.03;100.00
55576;BME280;41437;45.478;9.116;2022-12-18T14:01:44;101407.16;;;5.96;100.00
55576;BME280;41437;45.478;9.116;2022-12-18T14:04:47;101402.09;;;5.93;100.00
55576;BME280;41437;45.478;9.116;2022-12-18T14:07:49;101409.16;;;5.88;100.00
55576;BME280;41437;45.478;9.116;2022-12-18T14:10:51;101404.63;;;5.65;100.00
55576;BME280;41437;45.478;9.116;2022-12-18T14:13:53;101415.50;;;5.59;100.00
55576;BME280;41437;45.478;9.116;2022-12-18T14:16:56;101427.00;;;5.54;100.00
55576;BME280;41437;45.478;9.116;2022-12-18T14:19:58;101412.47;;;5.39;100.00
55576;BME280;41437;45.478;9.116;2022-12-18T14:23:00;101438.69;;;5.48;100.00
55576;BME280;41437;45.478;9.116;2022-12-18T14:26:03;101435.94;;;5.48;100.00
55576;BME280;41437;45.478;9.116;2022-12-18T14:29:25;101436.03;;;5.40;100.00
55576;BME280;41437;45.478;9.116;2022-12-18T14:32:28;101433.88;;;5.35;100.00
55576;BME280;41437;45.478;9.116;2022-12-18T14:35:30;101437.81;;;5.18;100.00
55576;BME280;41437;45.478;9.116;2022-12-18T14:38:33;101434.22;;;5.02;100.00
55576;BME280;41437;45.478;9.116;2022-12-18T14:41:35;101441.84;;;4.92;100.00
55576;BME280;41437;45.478;9.116;2022-12-18T14:44:37;101440.38;;;4.82;100.00
55576;BME280;41437;45.478;9.116;2022-12-18T14:47:43;101431.28;;;4.89;100.00
55576;BME280;41437;45.478;9.116;2022-12-18T14:50:54;101449.78;;;5.02;100.00
55576;BME280;41437;45.478;9.116;2022-12-18T14:53:57;101435.34;;;5.08;100.00
55576;BME280;41437;45.478;9.116;2022-12-18T14:57:03;101463.84;;;5.14;100.00
55576;BME280;41437;45.478;9.116;2022-12-18T15:00:14;101442.75;;;4.85;100.00
55576;BME280;41437;45.478;9.116;2022-12-18T15:03:20;101448.03;;;4.86;100.00
55576;BME280;41437;45.478;9.116;2022-12-18T15:06:27;101447.44;;;4.76;100.00
55576;BME280;41437;45.478;9.116;2022-12-18T15:09:30;101441.13;;;4.75;100.00
55576;BME280;41437;45.478;9.116;2022-12-18T15:12:36;101442.56;;;4.86;100.00
55576;BME280;41437;45.478;9.116;2022-12-18T15:15:45;101434.56;;;4.85;100.00
55576;BME280;41437;45.478;9.116;2022-12-18T15:18:49;101444.44;;;4.86;100.00
55576;BME280;41437;45.478;9.116;2022-12-18T15:21:51;101448.16;;;4.70;100.00
55576;BME280;41437;45.478;9.116;2022-12-18T15:24:53;101445.88;;;4.59;100.00
55576;BME280;41437;45.478;9.116;2022-12-18T15:27:55;101464.06;;;4.43;100.00
55576;BME280;41437;45.478;9.116;2022-12-18T15:31:02;101441.72;;;4.17;100.00
55576;BME280;41437;45.478;9.116;2022-12-18T15:34:13;101460.66;;;4.18;100.00
55576;BME280;41437;45.478;9.116;2022-12-18T15:37:15;101462.44;;;4.26;100.00
55576;BME280;41437;45.478;9.116;2022-12-18T15:40:18;101452.88;;;4.30;100.00
55576;BME280;41437;45.478;9.116;2022-12-18T15:43:21;101463.94;;;4.37;100.00
55576;BME280;41437;45.478;9.116;2022-12-18T15:46:36;101477.38;;;4.38;100.00
55576;BME280;41437;45.478;9.116;2022-12-18T15:49:39;101472.16;;;4.28;100.00
55576;BME280;41437;45.478;9.116;2022-12-18T15:52:43;101473.38;;;4.26;100.00
55576;BME280;41437;45.478;9.116;2022-12-18T15:55:45;101468.16;;;4.39;100.00
55576;BME280;41437;45.478;9.116;2022-12-18T15:59:14;101459.69;;;4.34;100.00
55576;BME280;41437;45.478;9.116;2022-12-18T16:02:17;101455.06;;;4.35;100.00
55576;BME280;41437;45.478;9.116;2022-12-18T16:05:21;101465.03;;;4.50;100.00
55576;BME280;41437;45.478;9.116;2022-12-18T16:08:23;101477.28;;;4.54;100.00
55576;BME280;41437;45.478;9.116;2022-12-18T16:11:26;101480.06;;;4.46;100.00
55576;BME280;41437;45.478;9.116;2022-12-18T16:14:38;101476.53;;;4.38;100.00
55576;BME280;41437;45.478;9.116;2022-12-18T16:17:40;101471.31;;;4.28;100.00
55576;BME280;41437;45.478;9.116;2022-12-18T16:20:43;101482.84;;;4.38;100.00
55576;BME280;41437;45.478;9.116;2022-12-18T16:23:45;101476.53;;;4.38;100.00
55576;BME280;41437;45.478;9.116;2022-12-18T16:26:46;101479.41;;;4.44;100.00
55576;BME280;41437;45.478;9.116;2022-12-18T16:29:48;101464.78;;;4.37;100.00
55576;BME280;41437;45.478;9.116;2022-12-18T16:32:50;101479.31;;;4.29;100.00
55576;BME280;41437;45.478;9.116;2022-12-18T16:35:53;101487.47;;;4.38;100.00
55576;BME280;41437;45.478;9.116;2022-12-18T16:38:55;101479.09;;;4.39;100.00